MUC weather

Munich International Airport
Munich, Bavaria, Germany

Public forecast

Using degrees Celsius for public forecast. Weather courtesy of forecast.io.

METAR (pilot weather report)

Retrieved 2017/04/27 00:50 UTC (17 minutes ago):

EDDM 270050Z VRB01KT 9999 -RA FEW007 BKN011 03/02 Q1011 TEMPO BKN008

TAF (pilot weather forecast)

Forecast is more than 12 hours old.

Retrieved 2017/04/26 00:27 UTC (1 day ago):

TAF EDDM 262300Z 2700/2806 02005KT 8000 OVC012 TEMPO 2700/2707 4000 RASN OVC008 BECMG 2707/2709 BKN015 BECMG 2716/2718 BKN012 TEMPO 2717/2721 RA OVC008 TEMPO 2721/2806 3000 RASN OVC004